createdAt,value
2018-11-12T00:00:33.829Z,999.90
2018-11-12T00:03:01.908Z,945.73
2018-11-12T00:05:29.782Z,999.90
2018-11-12T00:07:57.655Z,999.37
2018-11-12T00:10:25.518Z,994.63
2018-11-12T00:12:53.570Z,987.23
2018-11-12T00:15:21.418Z,973.33
2018-11-12T00:17:49.279Z,999.90
2018-11-12T00:20:17.738Z,999.90
2018-11-12T00:22:46.063Z,973.87
2018-11-12T00:25:13.990Z,999.90
2018-11-12T00:27:42.217Z,999.90
2018-11-12T00:30:11.290Z,999.90
2018-11-12T00:32:39.146Z,999.90
2018-11-12T00:35:07.351Z,999.27
2018-11-12T00:37:35.195Z,997.23
2018-11-12T00:40:03.301Z,999.90
2018-11-12T00:42:31.208Z,979.90
2018-11-12T00:44:59.088Z,999.90
2018-11-12T00:47:26.930Z,999.90
2018-11-12T00:49:54.778Z,999.90
2018-11-12T00:52:22.625Z,996.87
2018-11-12T00:54:50.480Z,999.90
2018-11-12T00:57:18.335Z,999.90
2018-11-12T00:59:46.198Z,998.73
2018-11-12T01:02:14.047Z,996.73
2018-11-12T01:04:42.282Z,999.90
2018-11-12T01:07:10.155Z,999.90
2018-11-12T01:09:38.198Z,974.40
2018-11-12T01:12:06.159Z,999.90
2018-11-12T01:14:34.346Z,999.90
2018-11-12T01:17:02.280Z,980.27
2018-11-12T01:19:30.152Z,978.53
2018-11-12T01:21:58.010Z,990.23
2018-11-12T01:24:25.859Z,989.27
2018-11-12T01:26:53.755Z,994.13
2018-11-12T01:29:21.624Z,995.73
2018-11-12T01:31:49.644Z,945.77
2018-11-12T01:34:17.503Z,975.13
2018-11-12T01:36:45.399Z,962.77
2018-11-12T01:39:13.244Z,990.13
2018-11-12T01:41:42.037Z,974.97
2018-11-12T01:44:09.886Z,981.13
2018-11-12T01:46:37.729Z,974.37
2018-11-12T01:49:05.632Z,960.67
2018-11-12T01:51:33.521Z,985.63
2018-11-12T01:54:01.366Z,945.97
2018-11-12T01:56:29.254Z,983.73
2018-11-12T01:58:57.139Z,963.80
2018-11-12T02:01:24.988Z,984.27
2018-11-12T02:03:52.874Z,985.03
2018-11-12T02:06:20.723Z,964.00
2018-11-12T02:08:48.666Z,991.10
2018-11-12T02:11:16.455Z,974.57
2018-11-12T02:13:44.334Z,971.93
2018-11-12T02:16:12.190Z,944.63
2018-11-12T02:18:40.046Z,928.80
2018-11-12T02:21:08.478Z,981.80
2018-11-12T02:23:36.537Z,925.37
2018-11-12T02:26:04.583Z,954.37
2018-11-12T02:28:32.483Z,937.07
2018-11-12T02:31:00.333Z,929.13
2018-11-12T02:33:28.210Z,962.17
2018-11-12T02:35:56.065Z,911.03
2018-11-12T02:38:23.917Z,950.90
2018-11-12T02:40:51.840Z,919.27
2018-11-12T02:43:19.653Z,970.90
2018-11-12T02:45:47.517Z,902.63
2018-11-12T02:48:15.374Z,941.93
2018-11-12T02:50:43.241Z,951.37
2018-11-12T02:53:11.108Z,930.67
2018-11-12T02:55:38.970Z,963.63
2018-11-12T02:58:06.822Z,929.17
2018-11-12T03:00:34.686Z,973.00
2018-11-12T03:03:02.533Z,960.87
2018-11-12T03:05:30.405Z,962.90
2018-11-12T03:07:58.258Z,952.70
2018-11-12T03:10:26.111Z,980.17
2018-11-12T03:12:53.994Z,955.77
2018-11-12T03:15:22.145Z,945.87
2018-11-12T03:17:50.897Z,913.60
2018-11-12T03:20:19.877Z,962.30
2018-11-12T03:22:47.883Z,937.10
2018-11-12T03:25:16.993Z,975.73
2018-11-12T03:27:45.772Z,977.40
2018-11-12T03:30:14.984Z,968.47
2018-11-12T03:32:43.761Z,968.17
2018-11-12T03:35:12.353Z,969.10
2018-11-12T03:37:41.225Z,984.17
2018-11-12T03:40:10.090Z,958.90
2018-11-12T03:42:37.961Z,956.13
2018-11-12T03:45:07.357Z,990.33
2018-11-12T03:47:35.201Z,967.23
2018-11-12T03:50:03.241Z,980.27
2018-11-12T03:52:31.279Z,956.20
2018-11-12T03:54:59.138Z,966.73
2018-11-12T03:57:27.034Z,977.50
2018-11-12T03:59:54.885Z,967.20
2018-11-12T04:02:22.730Z,997.17
2018-11-12T04:04:50.588Z,999.90
2018-11-12T04:07:18.563Z,978.53
2018-11-12T04:09:46.444Z,999.90
2018-11-12T04:12:14.475Z,999.90
2018-11-12T04:14:42.307Z,978.73
2018-11-12T04:17:10.166Z,992.40
2018-11-12T04:19:38.022Z,999.90
2018-11-12T04:22:05.877Z,998.20
2018-11-12T04:24:33.723Z,999.90
2018-11-12T04:27:01.590Z,999.90
2018-11-12T04:29:29.429Z,999.90
2018-11-12T04:31:57.486Z,985.60
2018-11-12T04:34:25.353Z,994.03
2018-11-12T04:36:53.205Z,985.33
2018-11-12T04:39:21.054Z,990.43
2018-11-12T04:41:48.937Z,968.90
2018-11-12T04:44:16.795Z,978.67
2018-11-12T04:46:44.695Z,977.20
2018-11-12T04:49:12.522Z,975.67
2018-11-12T04:51:40.386Z,966.47
2018-11-12T04:54:08.234Z,971.23
2018-11-12T04:56:36.220Z,947.00
2018-11-12T04:59:04.479Z,974.63
2018-11-12T05:01:32.350Z,957.03
2018-11-12T05:04:00.205Z,963.73
2018-11-12T05:06:28.053Z,955.17
2018-11-12T05:08:55.922Z,978.77
2018-11-12T05:11:23.894Z,971.67
2018-11-12T05:13:51.742Z,993.13
2018-11-12T05:16:19.597Z,999.90
2018-11-12T05:18:47.450Z,997.13
2018-11-12T05:21:15.306Z,999.90
2018-11-12T05:23:43.170Z,999.90
2018-11-12T05:26:11.027Z,999.90
2018-11-12T05:28:38.945Z,996.30
2018-11-12T05:31:06.815Z,995.73
2018-11-12T05:33:34.658Z,999.90
2018-11-12T05:36:02.509Z,994.97
2018-11-12T05:38:30.353Z,999.90
2018-11-12T05:40:58.301Z,995.83
2018-11-12T05:43:26.153Z,985.70
2018-11-12T05:45:54.021Z,999.90
2018-11-12T05:48:21.881Z,993.47
2018-11-12T05:50:50.538Z,999.90
2018-11-12T05:53:18.393Z,997.73
2018-11-12T05:55:46.241Z,999.90
2018-11-12T05:58:14.103Z,999.90
2018-11-12T06:00:41.950Z,998.27
2018-11-12T06:03:09.806Z,999.90
2018-11-12T06:05:37.658Z,973.50
2018-11-12T06:08:05.522Z,994.90
2018-11-12T06:10:34.106Z,984.53
2018-11-12T06:13:01.961Z,999.90
2018-11-12T06:15:29.805Z,999.90
2018-11-12T06:17:57.662Z,999.90
2018-11-12T06:20:26.770Z,999.90
2018-11-12T06:22:54.674Z,999.90
2018-11-12T06:25:28.188Z,988.43
2018-11-12T06:27:56.518Z,999.90
2018-11-12T06:30:28.928Z,999.90
2018-11-12T06:32:56.802Z,998.53
2018-11-12T06:35:24.659Z,999.90
2018-11-12T06:37:53.105Z,999.90
2018-11-12T06:40:21.991Z,999.90
2018-11-12T06:42:50.011Z,999.90
2018-11-12T06:45:28.977Z,998.50
2018-11-12T06:47:57.469Z,999.67
2018-11-12T06:50:26.758Z,999.90
2018-11-12T06:52:54.745Z,999.90
2018-11-12T06:55:23.010Z,999.90
2018-11-12T06:57:51.206Z,999.90
2018-11-12T07:00:21.813Z,999.90
2018-11-12T07:02:49.697Z,999.90
2018-11-12T07:05:17.749Z,998.07
2018-11-12T07:07:45.597Z,985.93
2018-11-12T07:10:14.713Z,998.50
2018-11-12T07:12:43.412Z,999.80
2018-11-12T07:15:12.593Z,999.33
2018-11-12T07:17:40.445Z,971.33
2018-11-12T07:20:09.805Z,974.47
2018-11-12T07:22:37.686Z,996.37
2018-11-12T07:25:06.069Z,987.27
2018-11-12T07:27:33.960Z,998.30
2018-11-12T07:30:01.805Z,995.97
2018-11-12T07:32:29.682Z,977.87
2018-11-12T07:34:57.527Z,999.90
2018-11-12T07:37:25.376Z,999.50
2018-11-12T07:39:53.226Z,985.10
2018-11-12T07:42:21.098Z,986.27
2018-11-12T07:44:48.950Z,992.07
2018-11-12T07:47:16.803Z,996.13
2018-11-12T07:49:44.659Z,999.90
2018-11-12T07:52:12.506Z,999.90
2018-11-12T07:54:40.361Z,998.00
2018-11-12T07:57:08.218Z,984.50
2018-11-12T07:59:36.069Z,994.70
2018-11-12T08:02:03.918Z,980.87
2018-11-12T08:04:31.790Z,996.87
2018-11-12T08:06:59.637Z,972.17
2018-11-12T08:09:27.541Z,998.47
2018-11-12T08:11:55.380Z,998.80
2018-11-12T08:14:23.223Z,986.10
2018-11-12T08:16:51.074Z,994.33
2018-11-12T08:19:18.925Z,999.23
2018-11-12T08:21:46.903Z,989.30
2018-11-12T08:24:14.711Z,997.73
2018-11-12T08:26:42.498Z,990.60
2018-11-12T08:29:10.343Z,965.40
2018-11-12T08:31:38.185Z,999.67
2018-11-12T08:34:06.035Z,985.90
2018-11-12T08:36:33.893Z,966.67
2018-11-12T08:39:01.758Z,935.30
2018-11-12T08:41:29.610Z,983.80
2018-11-12T08:43:57.473Z,980.93
2018-11-12T08:46:25.317Z,981.47
2018-11-12T08:48:53.184Z,975.90
2018-11-12T08:51:21.058Z,980.27
2018-11-12T08:53:48.924Z,972.40
2018-11-12T08:56:16.772Z,982.67
2018-11-12T08:58:44.637Z,990.83
2018-11-12T09:01:12.483Z,976.67
2018-11-12T09:03:40.386Z,961.77
2018-11-12T09:06:08.234Z,997.73
2018-11-12T09:08:36.093Z,974.37
2018-11-12T09:11:03.942Z,988.97
2018-11-12T09:13:31.802Z,974.13
2018-11-12T09:15:59.646Z,974.67
2018-11-12T09:18:27.513Z,991.90
2018-11-12T09:20:55.366Z,979.73
2018-11-12T09:23:23.207Z,970.50
2018-11-12T09:25:51.070Z,987.57
2018-11-12T09:28:18.917Z,981.93
2018-11-12T09:30:47.919Z,967.43
2018-11-12T09:33:14.623Z,974.00
2018-11-12T09:35:42.485Z,961.90
2018-11-12T09:38:10.389Z,976.23
2018-11-12T09:40:38.884Z,989.27
2018-11-12T09:43:06.853Z,994.50
2018-11-12T09:45:34.922Z,967.77
2018-11-12T09:48:02.771Z,995.60
2018-11-12T09:50:30.732Z,998.73
2018-11-12T09:52:59.625Z,974.67
2018-11-12T09:55:28.534Z,989.77
2018-11-12T09:57:59.874Z,980.47
2018-11-12T10:00:27.914Z,994.77
2018-11-12T10:02:56.208Z,975.40
2018-11-12T10:05:24.862Z,967.13
2018-11-12T10:07:55.909Z,987.87
2018-11-12T10:10:28.223Z,993.87
2018-11-12T10:12:54.105Z,969.37
2018-11-12T10:15:23.572Z,974.03
2018-11-12T10:17:52.511Z,996.83
2018-11-12T10:20:16.848Z,986.03
2018-11-12T10:22:45.096Z,976.90
2018-11-12T10:25:12.947Z,999.90
2018-11-12T10:27:40.791Z,977.60
2018-11-12T10:30:09.167Z,993.87
2018-11-12T10:32:37.068Z,992.63
2018-11-12T10:35:05.519Z,989.13
2018-11-12T10:37:33.362Z,955.70
2018-11-12T10:40:01.222Z,992.50
2018-11-12T10:42:29.151Z,985.83
2018-11-12T10:44:56.958Z,986.67
2018-11-12T10:47:24.798Z,977.23
2018-11-12T10:49:53.593Z,977.73
2018-11-12T10:52:21.438Z,979.30
2018-11-12T10:54:49.481Z,963.10
2018-11-12T10:57:17.149Z,963.10
2018-11-12T10:59:45.082Z,992.80
2018-11-12T11:02:18.374Z,997.33
2018-11-12T11:04:46.233Z,994.80
2018-11-12T11:07:14.085Z,999.90
2018-11-12T11:09:41.941Z,999.90
2018-11-12T11:12:09.794Z,999.90
2018-11-12T11:14:37.679Z,994.23
2018-11-12T11:17:05.542Z,998.27
2018-11-12T11:19:33.435Z,999.90
2018-11-12T11:22:01.266Z,983.00
2018-11-12T11:24:29.117Z,995.93
2018-11-12T11:26:56.976Z,993.43
2018-11-12T11:29:24.808Z,998.03
2018-11-12T11:31:52.739Z,992.77
2018-11-12T11:34:20.699Z,997.77
2018-11-12T11:36:48.574Z,998.03
2018-11-12T11:39:16.440Z,999.90
2018-11-12T11:41:44.305Z,999.90
2018-11-12T11:44:12.162Z,999.90
2018-11-12T11:46:40.021Z,999.90
2018-11-12T11:49:07.885Z,999.90
2018-11-12T11:51:35.782Z,999.90
2018-11-12T11:54:03.670Z,999.90
2018-11-12T11:56:31.642Z,999.90
2018-11-12T11:58:59.406Z,999.90
2018-11-12T12:01:27.293Z,999.90
2018-11-12T12:03:59.806Z,999.90
2018-11-12T12:06:28.401Z,999.90
2018-11-12T12:08:56.643Z,999.90
2018-11-12T12:11:24.464Z,999.90
2018-11-12T12:13:52.425Z,999.90
2018-11-12T12:16:20.279Z,999.90
2018-11-12T12:18:48.118Z,999.90
2018-11-12T12:21:15.978Z,999.90
2018-11-12T12:23:43.821Z,999.90
2018-11-12T12:26:11.838Z,999.90
2018-11-12T12:28:39.682Z,999.90
2018-11-12T12:31:07.578Z,999.90
2018-11-12T12:33:35.433Z,999.90
2018-11-12T12:36:03.370Z,998.20
2018-11-12T12:38:31.157Z,999.90
2018-11-12T12:40:59.018Z,999.63
2018-11-12T12:43:26.869Z,999.90
2018-11-12T12:45:54.821Z,992.70
2018-11-12T12:48:23.095Z,999.90
2018-11-12T12:50:51.066Z,999.90
2018-11-12T12:53:19.026Z,999.90
2018-11-12T12:55:47.005Z,999.90
2018-11-12T12:58:14.783Z,999.90
2018-11-12T13:00:42.606Z,999.73
2018-11-12T13:03:10.463Z,999.90
2018-11-12T13:05:38.305Z,999.47
2018-11-12T13:08:06.162Z,999.90
2018-11-12T13:10:34.007Z,999.90
2018-11-12T13:13:01.862Z,999.90
2018-11-12T13:15:29.706Z,999.90
2018-11-12T13:17:57.549Z,986.97
2018-11-12T13:20:25.513Z,988.67
2018-11-12T13:22:53.357Z,983.87
2018-11-12T13:25:21.198Z,997.70
2018-11-12T13:27:49.122Z,999.90
2018-11-12T13:30:21.331Z,973.30
2018-11-12T13:32:49.350Z,998.47
2018-11-12T13:35:18.845Z,987.57
2018-11-12T13:37:46.721Z,999.47
2018-11-12T13:40:16.014Z,995.27
2018-11-12T13:42:45.331Z,991.83
2018-11-12T13:45:13.178Z,993.63
2018-11-12T13:47:41.040Z,987.50
2018-11-12T13:50:09.822Z,967.00
2018-11-12T13:52:44.482Z,999.90
2018-11-12T13:55:13.449Z,993.23
2018-11-12T13:57:41.354Z,981.03
2018-11-12T14:00:09.914Z,994.53
2018-11-12T14:02:37.771Z,999.00
2018-11-12T14:05:06.430Z,987.63
2018-11-12T14:07:34.293Z,995.73
2018-11-12T14:10:02.143Z,999.90
2018-11-12T14:12:30.003Z,999.90
2018-11-12T14:14:57.856Z,999.90
2018-11-12T14:17:25.725Z,999.90
2018-11-12T14:19:53.577Z,999.53
2018-11-12T14:22:21.451Z,994.83
2018-11-12T14:24:49.317Z,990.27
2018-11-12T14:27:17.189Z,996.97
2018-11-12T14:29:45.049Z,988.80
2018-11-12T14:32:12.898Z,999.90
2018-11-12T14:34:40.746Z,998.50
2018-11-12T14:37:08.601Z,988.53
2018-11-12T14:39:36.483Z,991.27
2018-11-12T14:42:04.334Z,999.90
2018-11-12T14:44:32.193Z,999.90
2018-11-12T14:47:06.523Z,990.03
2018-11-12T14:49:34.540Z,989.40
2018-11-12T14:52:02.446Z,997.30
2018-11-12T14:54:30.542Z,999.90
2018-11-12T14:56:58.391Z,998.47
2018-11-12T14:59:31.919Z,999.90
2018-11-12T15:02:06.651Z,997.53
2018-11-12T15:04:34.528Z,994.50
2018-11-12T15:07:02.387Z,999.23
2018-11-12T15:09:30.301Z,986.70
2018-11-12T15:11:58.149Z,999.73
2018-11-12T15:14:26.001Z,996.13
2018-11-12T15:16:53.846Z,999.90
2018-11-12T15:19:21.738Z,969.57
2018-11-12T15:21:59.056Z,985.73
2018-11-12T15:24:26.914Z,977.50
2018-11-12T15:26:54.773Z,999.90
2018-11-12T15:29:25.232Z,988.00
2018-11-12T15:31:55.456Z,999.90
2018-11-12T15:34:27.620Z,999.03
2018-11-12T15:36:58.608Z,988.20
2018-11-12T15:39:30.091Z,999.90
2018-11-12T15:42:00.716Z,999.90
2018-11-12T15:44:31.430Z,999.30
2018-11-12T15:47:03.093Z,999.90
2018-11-12T15:49:34.355Z,999.17
2018-11-12T15:52:05.290Z,999.90
2018-11-12T15:54:35.869Z,992.13
2018-11-12T15:57:06.831Z,999.90
2018-11-12T15:59:37.662Z,999.90
2018-11-12T16:02:08.721Z,999.90
2018-11-12T16:04:41.232Z,994.23
2018-11-12T16:07:09.159Z,999.90
2018-11-12T16:09:37.031Z,999.90
2018-11-12T16:12:08.073Z,999.90
2018-11-12T16:14:36.022Z,998.77
2018-11-12T16:17:03.874Z,999.90
2018-11-12T16:19:35.519Z,999.90
2018-11-12T16:22:03.419Z,999.90
2018-11-12T16:24:31.291Z,984.07
2018-11-12T16:26:59.143Z,999.90
2018-11-12T16:29:27.007Z,994.87
2018-11-12T16:34:29.429Z,999.90
2018-11-12T16:36:57.302Z,999.90
2018-11-12T16:39:25.163Z,999.90
2018-11-12T16:41:53.054Z,988.27
2018-11-12T16:44:20.914Z,999.90
2018-11-12T16:46:49.022Z,999.07
2018-11-12T16:49:16.895Z,999.90
2018-11-12T16:51:44.732Z,999.90
2018-11-12T16:54:19.837Z,980.47
2018-11-12T16:56:50.970Z,999.90
2018-11-12T16:59:19.065Z,998.57
2018-11-12T17:01:46.951Z,999.90
2018-11-12T17:04:14.897Z,999.90
2018-11-12T17:06:44.119Z,998.87
2018-11-12T17:09:13.143Z,999.90
2018-11-12T17:11:41.105Z,999.57
2018-11-12T17:14:09.061Z,999.90
2018-11-12T17:16:37.073Z,984.70
2018-11-12T17:19:05.093Z,999.90
2018-11-12T17:21:37.104Z,999.90
2018-11-12T17:24:05.071Z,999.90
2018-11-12T17:26:32.927Z,984.63
2018-11-12T17:29:00.783Z,999.90
2018-11-12T17:31:29.126Z,989.73
2018-11-12T17:33:57.031Z,991.90
2018-11-12T17:36:25.020Z,975.47
2018-11-12T17:38:52.901Z,977.57
2018-11-12T17:41:20.852Z,985.57
2018-11-12T17:43:48.654Z,999.90
2018-11-12T17:46:16.514Z,999.90
2018-11-12T17:48:44.478Z,989.90
2018-11-12T17:51:12.417Z,999.90
2018-11-12T17:53:40.257Z,994.93
2018-11-12T17:56:08.128Z,980.67
2018-11-12T17:58:35.973Z,991.23
2018-11-12T18:01:03.981Z,995.60
2018-11-12T18:03:31.850Z,999.90
2018-11-12T18:05:59.700Z,999.90
2018-11-12T18:08:27.579Z,999.90
2018-11-12T18:10:55.462Z,999.90
2018-11-12T18:13:23.298Z,999.90
2018-11-12T18:15:51.154Z,999.90
2018-11-12T18:18:19.030Z,999.90
2018-11-12T18:20:46.929Z,999.47
2018-11-12T18:23:14.824Z,999.90
2018-11-12T18:25:42.670Z,999.90
2018-11-12T18:28:10.517Z,999.90
2018-11-12T18:30:38.639Z,999.90
2018-11-12T18:33:06.298Z,999.90
2018-11-12T18:35:34.158Z,999.90
2018-11-12T18:38:02.107Z,999.90
2018-11-12T18:40:30.082Z,999.90
2018-11-12T18:42:57.958Z,999.90
2018-11-12T18:45:26.882Z,999.90
2018-11-12T18:47:55.068Z,999.90
2018-11-12T18:50:24.353Z,999.90
2018-11-12T18:52:52.295Z,999.90
2018-11-12T18:55:20.154Z,999.90
2018-11-12T18:57:48.690Z,999.90
2018-11-12T19:00:18.916Z,999.90
2018-11-12T19:02:47.049Z,999.90
2018-11-12T19:05:16.535Z,999.90
2018-11-12T19:07:45.423Z,999.90
2018-11-12T19:10:15.586Z,999.90
2018-11-12T19:12:44.200Z,999.90
2018-11-12T19:15:13.695Z,999.90
2018-11-12T19:17:42.245Z,999.90
2018-11-12T19:20:10.093Z,999.90
2018-11-12T19:22:38.044Z,999.90
2018-11-12T19:25:07.245Z,999.90
2018-11-12T19:27:35.281Z,999.90
2018-11-12T19:30:03.253Z,999.90
2018-11-12T19:32:31.234Z,999.90
2018-11-12T19:34:59.555Z,999.90
2018-11-12T19:37:27.610Z,999.90
2018-11-12T19:39:55.564Z,999.90
2018-11-12T19:42:23.448Z,999.90
2018-11-12T19:44:51.321Z,999.90
2018-11-12T19:47:19.175Z,999.90
2018-11-12T19:49:47.119Z,999.90
2018-11-12T19:52:14.990Z,999.90
2018-11-12T19:54:42.898Z,999.90
2018-11-12T19:57:10.699Z,999.90
2018-11-12T19:59:38.569Z,999.90
2018-11-12T20:02:06.550Z,999.90
2018-11-12T20:04:34.533Z,999.90
2018-11-12T20:07:02.543Z,999.90
2018-11-12T20:09:30.468Z,999.90
2018-11-12T20:11:58.309Z,999.90
2018-11-12T20:14:26.161Z,999.90
2018-11-12T20:16:54.121Z,999.90
2018-11-12T20:19:21.994Z,999.90
2018-11-12T20:21:49.830Z,999.90
2018-11-12T20:24:17.681Z,999.90
2018-11-12T20:26:45.634Z,999.90
2018-11-12T20:29:13.513Z,999.90
2018-11-12T20:31:41.358Z,999.90
2018-11-12T20:34:09.322Z,999.90
2018-11-12T20:36:37.140Z,999.90
2018-11-12T20:39:06.532Z,999.90
2018-11-12T20:41:34.471Z,999.90
2018-11-12T20:44:02.350Z,999.90
2018-11-12T20:46:30.251Z,999.90
2018-11-12T20:48:58.097Z,999.90
2018-11-12T20:51:25.945Z,999.90
2018-11-12T20:53:53.881Z,999.90
2018-11-12T20:56:21.678Z,999.90
2018-11-12T20:58:49.533Z,999.90
2018-11-12T21:01:17.363Z,999.90
2018-11-12T21:03:45.286Z,999.90
2018-11-12T21:06:13.307Z,999.90
2018-11-12T21:08:41.214Z,999.90
2018-11-12T21:11:09.124Z,999.90
2018-11-12T21:13:36.966Z,999.90
2018-11-12T21:16:04.922Z,999.90
2018-11-12T21:18:32.798Z,999.90
2018-11-12T21:21:00.686Z,999.90
2018-11-12T21:23:28.535Z,999.90
2018-11-12T21:25:56.389Z,999.90
2018-11-12T21:28:24.238Z,999.90
2018-11-12T21:30:52.127Z,999.90
2018-11-12T21:33:20.152Z,999.90
2018-11-12T21:35:48.002Z,999.90
2018-11-12T21:40:57.655Z,999.90
2018-11-12T21:43:26.322Z,999.90
2018-11-12T21:45:57.648Z,999.90
2018-11-12T21:48:33.314Z,999.90
2018-11-12T21:51:06.815Z,999.90
2018-11-12T21:53:46.577Z,999.90
2018-11-12T21:56:14.849Z,999.90
2018-11-12T21:58:42.779Z,999.90
2018-11-12T22:01:10.734Z,999.90
2018-11-12T22:03:38.678Z,999.90
2018-11-12T22:06:06.631Z,999.90
2018-11-12T22:08:34.633Z,999.90
2018-11-12T22:11:02.465Z,999.90
2018-11-12T22:13:30.326Z,999.90
2018-11-12T22:15:58.193Z,999.90
2018-11-12T22:18:26.062Z,999.90
2018-11-12T22:20:53.933Z,999.90
2018-11-12T22:23:21.794Z,999.90
2018-11-12T22:25:49.654Z,999.90
2018-11-12T22:28:17.559Z,999.90
2018-11-12T22:30:45.454Z,999.90
2018-11-12T22:33:13.317Z,999.90
2018-11-12T22:35:41.185Z,999.90
2018-11-12T22:38:09.058Z,999.90
2018-11-12T22:40:36.924Z,999.90
2018-11-12T22:43:04.922Z,999.90
2018-11-12T22:45:33.061Z,999.90
2018-11-12T22:48:00.882Z,999.90
2018-11-12T22:50:29.305Z,999.90
2018-11-12T22:52:57.315Z,999.90
2018-11-12T22:55:25.294Z,999.90
2018-11-12T22:57:53.273Z,999.90
2018-11-12T23:00:27.376Z,999.90
2018-11-12T23:02:55.757Z,999.90
2018-11-12T23:05:23.957Z,999.90
2018-11-12T23:07:52.369Z,999.90
2018-11-12T23:10:20.599Z,999.90
2018-11-12T23:12:48.456Z,999.90
2018-11-12T23:15:16.923Z,999.90
2018-11-12T23:17:45.402Z,999.90
2018-11-12T23:20:16.103Z,999.90
2018-11-12T23:22:44.633Z,999.90
2018-11-12T23:25:12.737Z,999.90
2018-11-12T23:27:41.153Z,999.90
2018-11-12T23:30:10.226Z,999.90
2018-11-12T23:32:38.358Z,999.90
2018-11-12T23:35:07.355Z,999.90
2018-11-12T23:37:35.250Z,999.90
2018-11-12T23:40:03.229Z,999.90
2018-11-12T23:42:31.206Z,999.90
2018-11-12T23:44:59.417Z,999.90
2018-11-12T23:47:27.458Z,999.90
2018-11-12T23:49:55.510Z,999.90
2018-11-12T23:52:23.521Z,999.90
2018-11-12T23:54:51.578Z,999.90
2018-11-12T23:57:19.487Z,999.90
2018-11-12T23:59:47.491Z,999.90
